KEOK

Keokuk Municipal Airport

Keokuk, Iowa, USA
METAR KEOK 201615Z AUTO 20010G16KT 4SM BR SCT009 BKN013 BKN022 22/21 A2972 RMK AO2
Observed Flight Rules
Aug-20 @ 16:15 UTC (10 minutes ago) Marginal Visual Flight Rules
Wind Visibility Clouds Conditions
200° at 10 knots
 Gusting to 16 knots
4 miles
  • Scattered at 900' AGL
  • Broken at 1,300' AGL
  • Broken at 2,200' AGL
  • Mist
Temperatures Readings
Current 22°C / 72°F
Dewpoint 21°C / 70°F
Humidity 94%
Altimeter 29.72" Hg
Pressure 1006 hPa
Elevation 205
METAR KEOK 201615Z AUTO 20010G16KT 4SM BR SCT009 BKN013 BKN022 22/21 A2972 RMK AO2
Observed Flight Rules
Aug-20 @ 16:15 UTC
(10 minutes ago)
MVFR
Wind Visibility
200° at 10 knots
 Gusting to 16 knots
4 miles
Clouds
  • Scattered at 900' AGL
  • Broken at 1,300' AGL
  • Broken at 2,200' AGL
Conditions
  • Mist
Temperature Dewpoint
22°C / 72°F 21°C / 70°F
Humidity Altimeter Pressure
94% 29.72" Hg 1006 hPa